Terminal Aerodrome Forecast
Issued by NWS

Home | Current Version | Previous Version | Text Only | Print | Product List | Glossary On
Versions: 1 2 3 4 5 6 7 8 9 10 11 12 13
000
FTUS42 TJSJ 260540
TAFJMZ
TAF
TJMZ 260540Z 2606/2706 06005KT P6SM FEW025 SCT050 SCT120
     FM261400 26008KT P6SM VCSH FEW025 SCT040
      TEMPO 2619/2622 5SM TSRA SCT020CB BKN040
     FM270000 09005KT P6SM SCT030
      AMD NOT SKED=

USA.gov is the U.S. government's official web portal to all federal, state and local government web resources and services.